Time;durP1;ratioP1;P1;durP2;ratioP2;P2;SDS_P1;SDS_P2;PMS_P1;PMS_P2;Temp;Humidity;BMP_temperature;BMP_pressure;BME280_temperature;BME280_humidity;BME280_pressure;Samples;Min_cycle;Max_cycle;Signal;HPM_P1;HPM_P2
2021/06/10 00:01:30;;;;;;;6.83;4.17;;;;;;;16.18;100.00;99495.13;10500935;28;20182;-76
2021/06/10 00:06:49;;;;;;;8.83;4.90;;;;;;;16.10;100.00;99502.03;10500959;28;20171;-75
2021/06/10 00:12:08;;;;;;;5.33;4.83;;;;;;;16.18;100.00;99506.22;10500311;28;20240;-74
2021/06/10 00:17:28;;;;;;;8.80;5.63;;;;;;;16.02;100.00;99504.16;10501642;28;20645;-76
2021/06/10 00:22:47;;;;;;;6.23;4.67;;;;;;;15.83;100.00;99511.66;10499843;28;20257;-76
2021/06/10 00:28:06;;;;;;;8.73;4.87;;;;;;;15.69;100.00;99501.59;10500336;28;20210;-75
2021/06/10 00:33:26;;;;;;;9.87;5.23;;;;;;;15.71;100.00;99510.28;10500194;28;20222;-77
2021/06/10 00:38:46;;;;;;;8.23;5.20;;;;;;;15.61;100.00;99505.69;10499095;28;20257;-75
2021/06/10 00:44:07;;;;;;;7.53;4.90;;;;;;;15.38;100.00;99502.94;10499482;28;20182;-76
2021/06/10 00:49:27;;;;;;;9.60;5.07;;;;;;;15.48;100.00;99518.63;10500130;28;20179;-77
2021/06/10 00:54:46;;;;;;;5.07;4.57;;;;;;;15.48;100.00;99524.16;10498068;28;20237;-75
2021/06/10 01:00:08;;;;;;;9.40;5.37;;;;;;;15.48;100.00;99520.59;10499729;28;20215;-75
2021/06/10 01:05:27;;;;;;;15.50;4.40;;;;;;;15.29;100.00;99522.06;10499560;28;20182;-75
2021/06/10 01:11:11;;;;;;;9.07;5.43;;;;;;;15.07;100.00;99520.00;10497760;28;20191;-76
2021/06/10 01:16:34;;;;;;;11.90;5.93;;;;;;;15.13;100.00;99519.13;10498878;28;20573;-75
2021/06/10 01:21:58;;;;;;;8.17;5.73;;;;;;;15.12;100.00;99515.97;10497717;28;20665;-75
2021/06/10 01:27:32;;;;;;;14.13;5.97;;;;;;;15.04;100.00;99525.59;10498600;28;20171;-76
2021/06/10 01:32:54;;;;;;;6.13;5.00;;;;;;;15.00;100.00;99514.56;10511244;28;20258;-74
2021/06/10 01:38:15;;;;;;;5.57;3.80;;;;;;;14.93;100.00;99523.00;10497030;28;20174;-76
2021/06/10 01:43:39;;;;;;;3.77;3.47;;;;;;;14.90;100.00;99515.50;10498031;28;20182;-74
2021/06/10 01:48:59;;;;;;;4.67;3.57;;;;;;;14.88;100.00;99506.06;10497058;28;20181;-74
2021/06/10 01:54:19;;;;;;;6.33;4.47;;;;;;;14.99;100.00;99517.78;10496183;28;20560;-75
2021/06/10 01:59:38;;;;;;;5.50;4.87;;;;;;;14.97;100.00;99522.94;10497923;28;20682;-76
2021/06/10 02:04:57;;;;;;;5.17;4.07;;;;;;;15.01;100.00;99513.38;10497605;28;20182;-75
2021/06/10 02:10:21;;;;;;;5.23;3.17;;;;;;;14.91;100.00;99513.53;10495138;28;20175;-75
2021/06/10 02:15:42;;;;;;;6.50;4.10;;;;;;;14.84;100.00;99508.88;10497475;28;20178;-76
2021/06/10 02:21:03;;;;;;;11.43;5.70;;;;;;;15.05;100.00;99499.47;10497253;28;20652;-76
2021/06/10 02:26:22;;;;;;;7.50;4.73;;;;;;;14.80;100.00;99510.13;10496105;28;20182;-75
2021/06/10 02:31:41;;;;;;;7.93;4.03;;;;;;;14.84;100.00;99505.34;10496928;28;20206;-76
2021/06/10 02:37:01;;;;;;;5.50;4.20;;;;;;;14.84;100.00;99508.09;10494878;28;20218;-75
2021/06/10 02:42:21;;;;;;;6.77;4.30;;;;;;;14.83;100.00;99504.53;10496857;28;20182;-77
2021/06/10 02:48:42;;;;;;;4.63;4.00;;;;;;;14.85;100.00;99504.13;10498426;28;20653;-76
2021/06/10 02:54:05;;;;;;;11.03;4.60;;;;;;;14.89;100.00;99497.34;10549192;28;20291;-76
2021/06/10 02:59:25;;;;;;;8.23;5.00;;;;;;;14.95;100.00;99495.66;10588516;28;20185;-76
2021/06/10 03:04:45;;;;;;;8.83;5.10;;;;;;;15.14;100.00;99493.00;10572967;28;20181;-75
2021/06/10 03:10:08;;;;;;;6.73;4.40;;;;;;;15.14;100.00;99486.69;10587085;28;20535;-76
2021/06/10 03:15:30;;;;;;;6.27;4.70;;;;;;;15.01;100.00;99482.13;10587908;28;20222;-75
2021/06/10 03:20:49;;;;;;;7.87;4.87;;;;;;;14.96;100.00;99490.91;10587821;28;20181;-75
2021/06/10 03:26:09;;;;;;;8.83;5.27;;;;;;;15.04;100.00;99498.69;10570823;28;20536;-75
2021/06/10 03:31:29;;;;;;;8.07;6.60;;;;;;;15.11;100.00;99489.47;10571774;28;20209;-76
2021/06/10 03:36:49;;;;;;;10.87;5.90;;;;;;;15.17;100.00;99489.38;10570899;28;20213;-75
2021/06/10 03:42:09;;;;;;;5.37;4.30;;;;;;;15.26;100.00;99483.31;10587075;28;20169;-76
2021/06/10 03:47:29;;;;;;;6.87;5.73;;;;;;;15.31;100.00;99489.19;10571428;28;20169;-76
2021/06/10 03:52:48;;;;;;;7.83;5.00;;;;;;;15.38;100.00;99486.28;10584907;28;20287;-75
2021/06/10 03:58:07;;;;;;;8.60;5.83;;;;;;;15.44;100.00;99484.59;10584905;28;20205;-75
2021/06/10 04:03:26;;;;;;;13.43;6.07;;;;;;;15.48;100.00;99490.09;10585521;28;20170;-75
2021/06/10 04:08:45;;;;;;;6.90;5.03;;;;;;;15.46;100.00;99486.97;10584549;28;20537;-74
2021/06/10 04:14:05;;;;;;;8.90;5.50;;;;;;;15.54;100.00;99493.97;10585185;28;20201;-74
2021/06/10 04:19:25;;;;;;;8.93;5.17;;;;;;;15.45;100.00;99505.56;10585557;28;20256;-74
2021/06/10 04:24:43;;;;;;;8.00;6.20;;;;;;;15.45;100.00;99513.91;10584146;28;20165;-74
2021/06/10 04:30:08;;;;;;;7.37;4.53;;;;;;;15.54;100.00;99505.06;10584997;28;20639;-75
2021/06/10 04:35:27;;;;;;;8.33;5.20;;;;;;;15.67;100.00;99504.00;10584338;28;20217;-75
2021/06/10 04:40:47;;;;;;;6.77;4.80;;;;;;;15.75;100.00;99499.91;10583057;28;20177;-76
2021/06/10 04:46:06;;;;;;;8.63;5.27;;;;;;;15.94;100.00;99496.38;10584390;28;20178;-76
2021/06/10 04:51:26;;;;;;;4.43;4.00;;;;;;;15.92;100.00;99498.78;10583900;28;20563;-77
2021/06/10 04:56:44;;;;;;;6.97;5.00;;;;;;;15.85;100.00;99501.69;10569826;28;20662;-76
2021/06/10 05:02:05;;;;;;;7.70;4.53;;;;;;;15.73;100.00;99496.78;10520982;28;20194;-75
2021/06/10 05:07:24;;;;;;;7.33;4.93;;;;;;;15.74;100.00;99495.59;10497961;28;20175;-76
2021/06/10 05:12:43;;;;;;;10.00;5.70;;;;;;;15.76;100.00;99497.91;10498484;28;20206;-76
2021/06/10 05:18:20;;;;;;;10.17;4.80;;;;;;;15.95;100.00;99503.50;10532096;28;20199;-80
2021/06/10 05:23:41;;;;;;;7.73;5.37;;;;;;;16.06;100.00;99506.88;10581655;28;20186;-75
2021/06/10 05:29:00;;;;;;;18.83;6.17;;;;;;;16.07;100.00;99519.56;10582609;28;20534;-75
2021/06/10 05:34:19;;;;;;;9.10;5.30;;;;;;;16.14;100.00;99514.63;10581900;28;20217;-75
2021/06/10 05:39:37;;;;;;;10.07;5.80;;;;;;;16.33;100.00;99526.97;10565735;28;20252;-75
2021/06/10 05:44:56;;;;;;;7.07;5.70;;;;;;;16.74;100.00;99528.13;10582319;28;20177;-77
2021/06/10 05:50:15;;;;;;;10.10;6.23;;;;;;;16.99;100.00;99529.13;10581825;28;20181;-78
2021/06/10 05:55:36;;;;;;;12.27;5.87;;;;;;;17.31;100.00;99520.88;10566784;28;20189;-77
2021/06/10 06:00:55;;;;;;;11.00;7.10;;;;;;;17.84;100.00;99521.13;10581763;28;20197;-78
2021/06/10 06:06:18;;;;;;;13.60;6.57;;;;;;;18.33;100.00;99519.06;10566086;28;20280;-75
2021/06/10 06:11:37;;;;;;;14.47;9.50;;;;;;;18.72;100.00;99505.53;10564597;28;20201;-76
2021/06/10 06:16:57;;;;;;;15.17;8.00;;;;;;;19.13;100.00;99516.66;10574997;28;20634;-78
2021/06/10 06:22:16;;;;;;;14.67;8.83;;;;;;;19.36;100.00;99517.88;10581159;28;20169;-79
2021/06/10 06:27:36;;;;;;;14.80;7.67;;;;;;;19.73;100.00;99519.06;10587851;28;20635;-76
2021/06/10 06:32:55;;;;;;;11.30;7.10;;;;;;;19.91;100.00;99519.25;10588317;28;20597;-77
2021/06/10 06:38:14;;;;;;;10.60;6.37;;;;;;;20.19;100.00;99524.66;10557667;28;20170;-78
2021/06/10 06:43:33;;;;;;;14.40;6.90;;;;;;;20.52;100.00;99528.66;10545119;28;20178;-78
2021/06/10 06:48:52;;;;;;;10.20;6.83;;;;;;;20.90;100.00;99525.22;10546047;28;20177;-78
2021/06/10 06:54:11;;;;;;;7.63;5.90;;;;;;;21.33;100.00;99521.53;10551349;28;20206;-78
2021/06/10 06:59:30;;;;;;;14.33;7.77;;;;;;;21.63;100.00;99523.53;10563693;28;20628;-79
2021/06/10 07:04:50;;;;;;;10.53;7.80;;;;;;;21.58;100.00;99530.53;10572429;28;20169;-75
2021/06/10 07:10:09;;;;;;;8.57;6.50;;;;;;;21.60;100.00;99521.66;10586122;28;20624;-76
2021/06/10 07:15:29;;;;;;;11.10;7.63;;;;;;;21.84;100.00;99526.25;10568420;28;20186;-75
2021/06/10 07:20:48;;;;;;;11.50;7.40;;;;;;;22.43;100.00;99531.28;10571489;28;20623;-75
2021/06/10 07:26:07;;;;;;;11.03;6.80;;;;;;;22.98;100.00;99542.72;10586257;28;20169;-76
2021/06/10 07:31:26;;;;;;;10.83;7.23;;;;;;;23.58;100.00;99535.84;10587217;28;20651;-76
2021/06/10 07:36:45;;;;;;;9.77;7.10;;;;;;;23.86;100.00;99540.09;10586273;28;20292;-75
2021/06/10 07:42:05;;;;;;;12.87;8.13;;;;;;;24.50;98.90;99538.38;10586516;28;20173;-75
2021/06/10 07:47:24;;;;;;;9.57;6.30;;;;;;;25.13;94.53;99536.53;10586861;28;20177;-75
2021/06/10 07:52:43;;;;;;;12.70;6.23;;;;;;;25.60;91.52;99546.75;10582003;28;20745;-75
2021/06/10 07:58:03;;;;;;;10.03;7.20;;;;;;;26.05;66.83;99546.94;10547803;28;20190;-76
2021/06/10 08:03:22;;;;;;;8.27;5.43;;;;;;;26.30;62.37;99546.25;10528347;28;20265;-76
2021/06/10 08:08:42;;;;;;;6.50;5.57;;;;;;;26.70;61.65;99544.16;10542601;28;20173;-76
2021/06/10 08:14:01;;;;;;;6.23;5.03;;;;;;;26.08;61.02;99543.91;10543074;28;20607;-75
2021/06/10 08:19:21;;;;;;;5.60;5.07;;;;;;;26.82;63.60;99552.25;10543446;28;20174;-76
2021/06/10 08:24:40;;;;;;;8.03;5.13;;;;;;;27.39;59.04;99550.25;10541847;28;20209;-76
2021/06/10 08:29:59;;;;;;;6.20;5.40;;;;;;;27.65;58.08;99542.53;10543010;28;20258;-75
2021/06/10 08:35:19;;;;;;;4.87;4.47;;;;;;;28.19;57.78;99546.97;10542117;28;20258;-75
2021/06/10 08:40:38;;;;;;;6.90;5.33;;;;;;;28.55;55.44;99546.91;10541466;28;20561;-75
2021/06/10 08:46:04;;;;;;;5.33;4.83;;;;;;;28.77;55.87;99544.88;10541557;28;20215;-76
2021/06/10 08:51:23;;;;;;;5.10;4.60;;;;;;;28.86;55.84;99532.59;10564763;28;20213;-76
2021/06/10 08:56:43;;;;;;;5.37;4.87;;;;;;;27.36;56.47;99539.97;10579114;28;20181;-77
2021/06/10 09:02:03;;;;;;;4.60;4.20;;;;;;;27.55;54.02;99541.91;10580506;28;20182;-77
2021/06/10 09:07:39;;;;;;;6.50;4.67;;;;;;;27.79;60.08;99539.53;10540250;28;21132;-76
2021/06/10 09:13:01;;;;;;;5.03;4.53;;;;;;;28.98;50.49;99537.75;10540843;28;20198;-77
2021/06/10 09:18:28;;;;;;;4.10;3.70;;;;;;;29.88;49.39;99535.94;10557007;28;20238;-77
2021/06/10 09:23:47;;;;;;;5.53;4.60;;;;;;;29.97;50.02;99540.59;10566502;28;20182;-76
2021/06/10 09:29:07;;;;;;;6.50;4.80;;;;;;;30.75;46.95;99534.88;10582793;28;20201;-76
2021/06/10 09:34:42;;;;;;;5.20;4.70;;;;;;;30.39;45.96;99536.03;10562027;28;20224;-76
2021/06/10 09:40:18;;;;;;;4.37;3.90;;;;;;;30.34;47.05;99530.38;10575640;28;20197;-78
2021/06/10 09:45:42;;;;;;;4.60;4.00;;;;;;;31.35;44.67;99525.94;10582156;28;20182;-77
2021/06/10 09:51:01;;;;;;;6.40;5.20;;;;;;;30.79;44.15;99526.81;10582062;28;20201;-77
2021/06/10 09:56:20;;;;;;;6.43;4.80;;;;;;;29.73;48.50;99526.94;10580705;28;20213;-77
2021/06/10 10:01:39;;;;;;;4.60;4.30;;;;;;;29.75;47.08;99523.56;10581804;28;20173;-77
2021/06/10 10:06:58;;;;;;;5.07;4.57;;;;;;;29.24;50.15;99526.94;10581574;28;20169;-77
2021/06/10 10:12:19;;;;;;;5.20;3.57;;;;;;;29.60;47.75;99511.75;10580318;28;20212;-76
2021/06/10 10:17:39;;;;;;;5.97;4.10;;;;;;;28.33;52.00;99510.78;10565978;28;20181;-77
2021/06/10 10:22:58;;;;;;;4.57;4.07;;;;;;;29.87;46.90;99500.34;10579874;28;20627;-76
2021/06/10 10:28:17;;;;;;;5.27;4.37;;;;;;;31.21;44.33;99486.50;10565621;28;20635;-78
2021/06/10 10:33:45;;;;;;;4.40;4.03;;;;;;;30.89;43.28;99485.44;10564874;28;20220;-78
2021/06/10 10:39:10;;;;;;;4.70;4.27;;;;;;;31.12;47.59;99479.09;10579730;28;20181;-78
2021/06/10 10:44:31;;;;;;;5.70;4.57;;;;;;;31.32;41.75;99472.19;10565140;28;20264;-77
2021/06/10 10:49:53;;;;;;;4.20;3.80;;;;;;;32.30;39.69;99468.28;10565296;28;20177;-78
2021/06/10 10:55:26;;;;;;;4.47;4.07;;;;;;;31.78;38.81;99465.00;10578812;28;20201;-77
2021/06/10 11:00:59;;;;;;;4.33;3.93;;;;;;;32.14;38.79;99471.34;10565022;28;20656;-77
2021/06/10 11:06:22;;;;;;;5.53;4.90;;;;;;;32.10;39.44;99465.94;10564960;28;20173;-79
2021/06/10 11:12:00;;;;;;;5.47;4.50;;;;;;;33.48;38.14;99451.94;10585359;28;20201;-77
2021/06/10 11:17:22;;;;;;;5.53;4.80;;;;;;;33.22;37.85;99456.81;10588268;28;20201;-78
2021/06/10 11:22:50;;;;;;;3.80;3.50;;;;;;;34.05;36.18;99441.78;10586897;28;20165;-78
2021/06/10 11:28:19;;;;;;;5.40;4.90;;;;;;;34.61;33.90;99440.03;10572333;28;20165;-78
2021/06/10 11:33:38;;;;;;;4.70;4.30;;;;;;;33.58;36.39;99455.94;10586873;28;20694;-78
2021/06/10 11:38:57;;;;;;;4.97;4.57;;;;;;;33.36;35.31;99447.72;10586178;28;20173;-78
2021/06/10 11:44:17;;;;;;;4.60;4.20;;;;;;;34.56;34.34;99443.81;10586957;28;20173;-77
2021/06/10 11:49:35;;;;;;;4.30;3.93;;;;;;;35.48;35.49;99431.38;10568207;28;20200;-79
2021/06/10 11:55:10;;;;;;;4.83;4.40;;;;;;;32.35;35.88;99441.81;10582560;28;20209;-78
2021/06/10 12:00:32;;;;;;;4.10;3.80;;;;;;;33.78;36.83;99428.81;10559064;28;20186;-78
2021/06/10 12:05:55;;;;;;;10.23;4.00;;;;;;;32.73;37.61;99426.22;10570631;28;20181;-77
2021/06/10 12:11:15;;;;;;;4.53;4.13;;;;;;;30.95;40.57;99424.41;10584660;28;20205;-76
2021/06/10 12:16:34;;;;;;;4.90;4.10;;;;;;;33.03;36.96;99404.00;10585882;28;20177;-78
2021/06/10 12:22:00;;;;;;;4.87;4.47;;;;;;;33.47;35.29;99401.88;10584346;28;20177;-77
2021/06/10 12:27:20;;;;;;;4.60;4.20;;;;;;;31.87;37.38;99402.03;10556160;28;20264;-76
2021/06/10 12:32:39;;;;;;;4.30;3.90;;;;;;;31.32;39.36;99389.72;10542392;28;20229;-76
2021/06/10 12:37:58;;;;;;;5.87;5.17;;;;;;;31.11;38.13;99385.78;10526036;28;20174;-76
2021/06/10 12:43:23;;;;;;;4.90;4.50;;;;;;;30.89;39.67;99386.75;10542432;28;20177;-77
2021/06/10 12:48:54;;;;;;;5.00;4.60;;;;;;;31.12;39.96;99375.97;10542505;28;20166;-76
2021/06/10 12:54:18;;;;;;;4.77;4.40;;;;;;;30.87;38.99;99366.63;10525081;28;20242;-77
2021/06/10 12:59:38;;;;;;;5.07;4.60;;;;;;;29.38;39.59;99355.84;10526380;28;20194;-76
2021/06/10 13:05:01;;;;;;;4.37;3.97;;;;;;;29.84;41.65;99356.69;10541710;28;20591;-76
2021/06/10 13:10:43;;;;;;;5.20;4.27;;;;;;;30.27;41.06;99346.41;10521371;28;20194;-77
2021/06/10 13:16:03;;;;;;;4.40;4.10;;;;;;;29.70;42.23;99343.59;10541101;28;20264;-76
2021/06/10 13:21:22;;;;;;;3.70;3.50;;;;;;;29.74;41.87;99332.75;10540855;28;20608;-77
2021/06/10 13:26:47;;;;;;;3.83;3.37;;;;;;;29.64;41.81;99327.91;10524197;28;20178;-75
2021/06/10 13:32:21;;;;;;;3.93;3.57;;;;;;;30.50;40.30;99314.50;10538903;28;20201;-78
2021/06/10 13:37:41;;;;;;;3.63;3.30;;;;;;;32.34;35.20;99297.84;10539040;28;20186;-78
2021/06/10 13:43:00;;;;;;;4.20;3.80;;;;;;;32.76;35.62;99299.75;10540246;28;20186;-79
2021/06/10 13:48:19;;;;;;;3.70;3.40;;;;;;;31.53;37.06;99317.59;10524833;28;20178;-77
2021/06/10 13:53:40;;;;;;;3.60;3.30;;;;;;;29.97;37.33;99294.50;10538041;28;20296;-78
2021/06/10 13:58:59;;;;;;;4.83;4.40;;;;;;;30.32;39.45;99314.38;10523795;28;20162;-78
2021/06/10 14:04:17;;;;;;;4.43;4.03;;;;;;;30.70;38.76;99316.16;10539301;28;20216;-76
2021/06/10 14:09:36;;;;;;;5.13;4.63;;;;;;;31.03;37.11;99302.41;10522902;28;20209;-78
2021/06/10 14:14:55;;;;;;;4.47;4.03;;;;;;;31.11;36.10;99294.81;10538758;28;20241;-79
2021/06/10 14:20:15;;;;;;;5.37;4.97;;;;;;;30.20;39.37;99313.69;10539190;28;20633;-78
2021/06/10 14:25:36;;;;;;;5.30;4.80;;;;;;;30.60;39.33;99306.41;10537888;28;20634;-77
2021/06/10 14:36:52;;;;;;;5.00;4.60;;;;;;;29.43;42.72;99301.97;10329495;28;20225;-77
2021/06/10 14:42:13;;;;;;;5.93;5.33;;;;;;;30.59;40.10;99291.47;10478679;28;20645;-76
2021/06/10 14:47:32;;;;;;;5.13;4.70;;;;;;;31.04;37.79;99293.38;10504841;28;20576;-78
2021/06/10 14:52:51;;;;;;;4.47;4.10;;;;;;;31.19;38.93;99285.19;10503349;28;20281;-77
2021/06/10 14:58:10;;;;;;;5.80;5.20;;;;;;;29.86;40.94;99288.09;10504610;28;20203;-78
2021/06/10 15:03:29;;;;;;;4.53;4.13;;;;;;;29.23;43.47;99281.66;10504305;28;20175;-78
2021/06/10 15:08:51;;;;;;;7.50;4.53;;;;;;;29.30;41.17;99286.78;10502842;28;20614;-78
2021/06/10 15:14:10;;;;;;;4.27;3.93;;;;;;;29.70;42.49;99283.28;10488267;28;20242;-77
2021/06/10 15:19:29;;;;;;;5.93;5.20;;;;;;;30.60;40.68;99280.84;10503676;28;20175;-77
2021/06/10 15:24:48;;;;;;;7.00;4.20;;;;;;;31.58;37.00;99279.81;10502440;28;20175;-80
2021/06/10 15:30:08;;;;;;;5.17;4.10;;;;;;;31.85;35.91;99292.88;10488320;28;20170;-79
2021/06/10 15:35:27;;;;;;;3.70;3.40;;;;;;;31.02;41.12;99317.91;10515469;28;20312;-78
2021/06/10 15:40:46;;;;;;;4.43;4.10;;;;;;;30.19;42.82;99312.16;10543582;28;20265;-77
2021/06/10 15:46:05;;;;;;;2.93;2.73;;;;;;;28.99;43.38;99312.66;10545178;28;20652;-79
2021/06/10 15:51:32;;;;;;;2.50;2.30;;;;;;;28.38;44.54;99306.22;10544420;28;20671;-79
2021/06/10 15:56:51;;;;;;;3.67;3.37;;;;;;;28.22;43.26;99300.56;10543063;28;20174;-78
2021/06/10 16:02:10;;;;;;;4.37;3.00;;;;;;;27.50;44.56;99301.63;10544065;28;20181;-79
2021/06/10 16:07:29;;;;;;;4.03;3.63;;;;;;;27.77;45.04;99323.59;10527292;28;20174;-79
2021/06/10 16:12:49;;;;;;;4.93;2.70;;;;;;;27.06;49.31;99359.94;10543613;28;20209;-79
2021/06/10 16:18:09;;;;;;;5.30;4.40;;;;;;;26.07;52.79;99369.56;10528043;28;20186;-78
2021/06/10 16:23:29;;;;;;;5.47;4.30;;;;;;;25.16;57.49;99366.59;10541973;28;20178;-78
2021/06/10 16:28:48;;;;;;;3.30;3.00;;;;;;;25.45;55.70;99369.28;10542948;28;20186;-78
2021/06/10 16:34:07;;;;;;;3.87;3.43;;;;;;;25.51;54.33;99363.72;10542252;28;20230;-78
2021/06/10 16:39:26;;;;;;;5.63;3.53;;;;;;;25.62;56.52;99383.59;10541438;28;20174;-78
2021/06/10 16:44:45;;;;;;;3.50;3.20;;;;;;;25.16;57.34;99399.63;10526910;28;20205;-78
2021/06/10 16:50:09;;;;;;;4.20;3.80;;;;;;;24.80;65.66;99388.00;10542328;28;20170;-79
2021/06/10 16:55:28;;;;;;;5.03;4.57;;;;;;;23.63;81.49;99380.69;10524993;28;20664;-80
2021/06/10 17:00:55;;;;;;;4.83;4.07;;;;;;;22.97;89.69;99384.03;10542008;28;20202;-81
2021/06/10 17:06:14;;;;;;;5.53;4.90;;;;;;;22.47;96.57;99361.63;10541198;28;20182;-79
2021/06/10 17:11:33;;;;;;;5.77;4.33;;;;;;;22.64;94.26;99366.41;10540207;28;20206;-78
2021/06/10 17:16:55;;;;;;;4.70;4.27;;;;;;;22.79;94.25;99363.69;10526041;28;20194;-78
2021/06/10 17:22:14;;;;;;;5.83;5.23;;;;;;;23.24;89.67;99355.84;10539769;28;20551;-77
2021/06/10 17:27:33;;;;;;;5.60;4.60;;;;;;;23.31;88.08;99354.72;10540739;28;20270;-78
2021/06/10 17:32:54;;;;;;;5.67;3.80;;;;;;;24.05;82.15;99356.00;10540224;28;20594;-78
2021/06/10 17:38:13;;;;;;;5.30;4.80;;;;;;;23.71;78.88;99352.97;10538582;28;20178;-78
2021/06/10 17:43:32;;;;;;;3.80;3.50;;;;;;;23.46;80.14;99357.09;10540000;28;20178;-78
2021/06/10 17:48:51;;;;;;;3.40;3.10;;;;;;;23.16;82.78;99359.50;10540306;28;20170;-79
2021/06/10 17:54:10;;;;;;;4.40;4.00;;;;;;;23.40;79.69;99358.22;10522776;28;20276;-79
2021/06/10 17:59:29;;;;;;;4.33;3.93;;;;;;;23.45;82.22;99357.56;10539758;28;20664;-78
2021/06/10 18:04:48;;;;;;;3.63;3.33;;;;;;;23.52;83.49;99362.81;10524281;28;20216;-78
2021/06/10 18:10:09;;;;;;;3.53;3.23;;;;;;;23.50;82.70;99354.84;10538223;28;20177;-80
2021/06/10 18:15:29;;;;;;;3.10;2.90;;;;;;;23.32;84.61;99367.50;10523465;28;20695;-78
2021/06/10 18:20:48;;;;;;;3.77;3.50;;;;;;;23.13;84.36;99374.47;10538414;28;20216;-80
2021/06/10 18:26:07;;;;;;;3.83;3.53;;;;;;;22.90;87.09;99389.97;10537846;28;20684;-78
2021/06/10 18:31:26;;;;;;;4.83;4.30;;;;;;;22.60;90.78;99385.44;10539096;28;20202;-78
2021/06/10 18:36:47;;;;;;;5.03;4.53;;;;;;;22.36;91.54;99383.81;10538406;28;20590;-80
2021/06/10 18:42:06;;;;;;;5.73;3.93;;;;;;;22.16;93.43;99389.09;10522122;28;20178;-80
2021/06/10 18:47:25;;;;;;;4.80;4.13;;;;;;;22.13;93.95;99390.00;10538673;28;20174;-80
2021/06/10 18:52:46;;;;;;;4.50;3.90;;;;;;;22.10;93.54;99390.19;10521598;28;20202;-79
2021/06/10 18:58:04;;;;;;;5.37;4.00;;;;;;;22.04;94.99;99400.47;10538403;28;20174;-80
2021/06/10 19:03:23;;;;;;;5.27;4.77;;;;;;;21.81;96.51;99387.88;10523075;28;20170;-80
2021/06/10 19:08:42;;;;;;;3.67;3.37;;;;;;;21.61;97.71;99397.22;10536767;28;20175;-80
2021/06/10 19:14:01;;;;;;;4.60;4.20;;;;;;;21.39;100.00;99396.53;10522627;28;20206;-80
2021/06/10 19:19:20;;;;;;;7.27;5.20;;;;;;;21.10;100.00;99393.34;10537961;28;20174;-79
2021/06/10 19:24:39;;;;;;;3.77;3.47;;;;;;;20.94;100.00;99393.59;10536558;28;20257;-79
2021/06/10 19:29:58;;;;;;;4.00;3.63;;;;;;;20.86;100.00;99394.34;10539556;28;20178;-80
2021/06/10 19:35:22;;;;;;;5.17;4.00;;;;;;;20.77;100.00;99400.69;10544414;28;20226;-81
2021/06/10 19:40:41;;;;;;;5.03;4.07;;;;;;;20.70;100.00;99403.72;10543606;28;20178;-80
2021/06/10 19:46:00;;;;;;;6.50;4.47;;;;;;;20.20;100.00;99411.69;10544789;28;20268;-80
2021/06/10 19:51:19;;;;;;;14.20;6.90;;;;;;;20.03;100.00;99417.94;10544441;28;20202;-81
2021/06/10 19:56:38;;;;;;;8.73;3.87;;;;;;;20.14;100.00;99419.09;10543037;28;20194;-79
2021/06/10 20:01:57;;;;;;;6.43;4.57;;;;;;;20.08;100.00;99424.47;10528937;28;20178;-80
2021/06/10 20:07:16;;;;;;;5.37;4.00;;;;;;;19.83;100.00;99420.97;10527124;28;20178;-80
2021/06/10 20:12:35;;;;;;;4.30;3.90;;;;;;;19.64;100.00;99410.91;10543511;28;20280;-79
2021/06/10 20:17:54;;;;;;;5.40;4.27;;;;;;;19.41;100.00;99411.31;10543372;28;20598;-79
2021/06/10 20:23:13;;;;;;;9.40;7.00;;;;;;;19.23;100.00;99416.69;10542192;28;20359;-80
2021/06/10 20:34:11;;;;;;;6.50;4.60;;;;;;;19.18;100.00;99408.09;10541947;28;20233;-78
2021/06/10 20:39:30;;;;;;;6.00;4.53;;;;;;;19.06;100.00;99413.66;10526133;28;20182;-80
2021/06/10 20:44:49;;;;;;;4.90;4.10;;;;;;;18.99;100.00;99409.09;10541540;28;20166;-81
2021/06/10 20:50:08;;;;;;;4.73;4.10;;;;;;;18.72;100.00;99403.22;10541199;28;20210;-80
2021/06/10 20:55:27;;;;;;;5.53;3.90;;;;;;;18.65;100.00;99406.22;10524971;28;20206;-80
2021/06/10 21:00:46;;;;;;;7.60;3.33;;;;;;;18.64;100.00;99415.81;10541881;28;20205;-80
2021/06/10 21:06:05;;;;;;;4.80;4.30;;;;;;;18.33;100.00;99411.19;10540662;28;20182;-80
2021/06/10 21:11:24;;;;;;;4.37;3.97;;;;;;;18.15;100.00;99402.53;10540142;28;20688;-80
2021/06/10 21:16:43;;;;;;;12.90;6.13;;;;;;;18.20;100.00;99404.78;10541483;28;20174;-80
2021/06/10 21:22:03;;;;;;;4.00;3.43;;;;;;;18.03;100.00;99410.84;10541197;28;20181;-81
2021/06/10 21:27:22;;;;;;;5.17;4.50;;;;;;;17.89;100.00;99408.47;10540906;28;20178;-81
2021/06/10 21:32:41;;;;;;;6.23;4.13;;;;;;;17.76;100.00;99410.44;10540187;28;20304;-81
2021/06/10 21:38:00;;;;;;;5.67;4.00;;;;;;;17.78;100.00;99405.19;10539147;28;20241;-81
2021/06/10 21:43:20;;;;;;;7.40;4.60;;;;;;;17.84;100.00;99411.81;10524934;28;20175;-81
2021/06/10 21:48:39;;;;;;;5.70;4.17;;;;;;;17.55;100.00;99407.44;10539201;28;20171;-81
2021/06/10 21:53:58;;;;;;;5.67;4.30;;;;;;;17.48;100.00;99404.84;10522740;28;20205;-81
2021/06/10 21:59:17;;;;;;;8.20;4.83;;;;;;;17.59;100.00;99404.09;10539965;28;20170;-81
2021/06/10 22:04:36;;;;;;;4.60;3.70;;;;;;;17.41;100.00;99393.88;10524340;28;20178;-81
2021/06/10 22:09:56;;;;;;;4.90;4.50;;;;;;;17.37;100.00;99393.97;10538163;28;20193;-80
2021/06/10 22:15:15;;;;;;;5.43;4.50;;;;;;;17.02;100.00;99391.28;10538865;28;20270;-80
2021/06/10 22:20:35;;;;;;;7.00;4.53;;;;;;;16.88;100.00;99392.41;10539206;28;20178;-79
2021/06/10 22:25:54;;;;;;;4.93;4.20;;;;;;;16.83;100.00;99389.38;10537694;28;20629;-78
2021/06/10 22:31:13;;;;;;;5.10;3.83;;;;;;;16.90;100.00;99392.75;10538984;28;20178;-80
2021/06/10 22:36:33;;;;;;;3.93;3.33;;;;;;;16.79;100.00;99388.66;10538454;28;20221;-78
2021/06/10 22:41:52;;;;;;;5.57;4.50;;;;;;;16.75;100.00;99401.09;10537476;28;20659;-79
2021/06/10 22:47:11;;;;;;;4.07;3.67;;;;;;;16.71;100.00;99394.84;10538874;28;20570;-79
2021/06/10 22:52:30;;;;;;;6.57;3.50;;;;;;;16.67;100.00;99386.59;10536356;28;20209;-79
2021/06/10 22:57:50;;;;;;;4.53;4.13;;;;;;;16.63;100.00;99388.66;10537757;28;20546;-78
2021/06/10 23:03:09;;;;;;;4.53;3.70;;;;;;;16.60;100.00;99399.84;10538541;28;20205;-78
2021/06/10 23:08:28;;;;;;;6.40;3.87;;;;;;;16.77;100.00;99393.09;10529467;28;20170;-78
2021/06/10 23:13:48;;;;;;;6.00;3.80;;;;;;;16.35;100.00;99402.41;10546027;28;20210;-80
2021/06/10 23:19:07;;;;;;;5.40;4.40;;;;;;;16.15;100.00;99407.19;10545922;28;20199;-79
2021/06/10 23:24:26;;;;;;;4.73;3.77;;;;;;;16.24;100.00;99410.13;10544741;28;20516;-79
2021/06/10 23:29:45;;;;;;;7.50;4.13;;;;;;;16.21;100.00;99399.91;10530262;28;20178;-79
2021/06/10 23:35:05;;;;;;;6.13;4.50;;;;;;;16.00;100.00;99401.13;10544793;28;20244;-79
2021/06/10 23:40:24;;;;;;;7.57;6.77;;;;;;;15.97;100.00;99396.41;10528320;28;20244;-79
2021/06/10 23:45:43;;;;;;;5.37;4.20;;;;;;;16.07;100.00;99400.19;10545182;28;20178;-80
2021/06/10 23:51:03;;;;;;;4.57;4.07;;;;;;;15.84;100.00;99397.47;10544663;28;20252;-79
2021/06/10 23:56:22;;;;;;;6.07;3.60;;;;;;;15.76;100.00;99396.06;10543163;28;20213;-79
